sensor_id;sensor_type;location;lat;lon;timestamp;P1;durP1;ratioP1;P2;durP2;ratioP2
40601;SDS011;26310;50.278;19.032;2022-12-07T00:03:43;14.87;;;8.90;;
40601;SDS011;26310;50.278;19.032;2022-12-07T00:08:47;18.07;;;8.70;;
40601;SDS011;26310;50.278;19.032;2022-12-07T00:13:51;16.70;;;9.50;;
40601;SDS011;26310;50.278;19.032;2022-12-07T00:18:56;15.57;;;8.30;;
40601;SDS011;26310;50.278;19.032;2022-12-07T00:24:00;12.63;;;7.73;;
40601;SDS011;26310;50.278;19.032;2022-12-07T00:29:06;14.17;;;7.97;;
40601;SDS011;26310;50.278;19.032;2022-12-07T05:33:21;22.13;;;10.90;;
40601;SDS011;26310;50.278;19.032;2022-12-07T05:38:24;18.10;;;10.10;;
40601;SDS011;26310;50.278;19.032;2022-12-07T05:43:27;23.13;;;11.90;;
40601;SDS011;26310;50.278;19.032;2022-12-07T05:48:30;17.10;;;9.60;;
40601;SDS011;26310;50.278;19.032;2022-12-07T05:53:35;17.80;;;9.77;;
40601;SDS011;26310;50.278;19.032;2022-12-07T05:59:02;18.10;;;10.57;;
40601;SDS011;26310;50.278;19.032;2022-12-07T06:04:24;20.97;;;10.70;;
40601;SDS011;26310;50.278;19.032;2022-12-07T06:09:29;23.53;;;10.73;;
40601;SDS011;26310;50.278;19.032;2022-12-07T06:14:32;18.03;;;9.27;;
40601;SDS011;26310;50.278;19.032;2022-12-07T06:19:35;22.37;;;11.33;;
40601;SDS011;26310;50.278;19.032;2022-12-07T06:24:38;23.20;;;11.73;;
40601;SDS011;26310;50.278;19.032;2022-12-07T06:29:41;24.73;;;12.80;;
40601;SDS011;26310;50.278;19.032;2022-12-07T06:34:44;27.27;;;12.63;;
40601;SDS011;26310;50.278;19.032;2022-12-07T06:39:48;27.40;;;13.27;;
40601;SDS011;26310;50.278;19.032;2022-12-07T06:44:50;24.37;;;11.93;;
40601;SDS011;26310;50.278;19.032;2022-12-07T06:49:53;18.60;;;9.70;;
40601;SDS011;26310;50.278;19.032;2022-12-07T06:54:56;21.00;;;12.00;;
40601;SDS011;26310;50.278;19.032;2022-12-07T07:00:00;18.30;;;10.07;;
40601;SDS011;26310;50.278;19.032;2022-12-07T07:05:04;17.10;;;9.47;;
40601;SDS011;26310;50.278;19.032;2022-12-07T07:10:07;16.07;;;9.83;;
40601;SDS011;26310;50.278;19.032;2022-12-07T07:15:10;15.00;;;9.13;;
40601;SDS011;26310;50.278;19.032;2022-12-07T07:20:13;13.27;;;8.40;;
40601;SDS011;26310;50.278;19.032;2022-12-07T07:25:16;15.30;;;9.13;;
40601;SDS011;26310;50.278;19.032;2022-12-07T07:30:19;18.33;;;9.40;;
40601;SDS011;26310;50.278;19.032;2022-12-07T07:35:22;16.70;;;9.43;;
40601;SDS011;26310;50.278;19.032;2022-12-07T07:40:25;12.00;;;8.60;;
40601;SDS011;26310;50.278;19.032;2022-12-07T07:45:28;17.13;;;9.30;;
40601;SDS011;26310;50.278;19.032;2022-12-07T07:50:31;16.97;;;10.10;;
40601;SDS011;26310;50.278;19.032;2022-12-07T07:55:34;18.17;;;9.67;;
40601;SDS011;26310;50.278;19.032;2022-12-07T08:00:37;17.23;;;9.47;;
40601;SDS011;26310;50.278;19.032;2022-12-07T08:05:39;17.87;;;10.20;;
40601;SDS011;26310;50.278;19.032;2022-12-07T08:10:42;18.43;;;10.40;;
40601;SDS011;26310;50.278;19.032;2022-12-07T08:15:46;21.20;;;10.40;;
40601;SDS011;26310;50.278;19.032;2022-12-07T08:20:49;22.37;;;11.57;;
40601;SDS011;26310;50.278;19.032;2022-12-07T08:25:52;22.10;;;12.70;;
40601;SDS011;26310;50.278;19.032;2022-12-07T08:30:59;21.03;;;12.00;;
40601;SDS011;26310;50.278;19.032;2022-12-07T08:36:04;18.93;;;10.87;;
40601;SDS011;26310;50.278;19.032;2022-12-07T08:41:10;21.23;;;11.47;;
40601;SDS011;26310;50.278;19.032;2022-12-07T08:46:21;19.20;;;11.37;;
40601;SDS011;26310;50.278;19.032;2022-12-07T08:51:30;21.17;;;11.37;;
40601;SDS011;26310;50.278;19.032;2022-12-07T08:56:33;21.60;;;11.27;;
40601;SDS011;26310;50.278;19.032;2022-12-07T09:01:37;22.80;;;11.37;;
40601;SDS011;26310;50.278;19.032;2022-12-07T09:06:40;23.73;;;12.20;;
40601;SDS011;26310;50.278;19.032;2022-12-07T09:11:43;24.93;;;13.03;;
40601;SDS011;26310;50.278;19.032;2022-12-07T09:16:46;20.70;;;11.27;;
40601;SDS011;26310;50.278;19.032;2022-12-07T09:21:49;17.87;;;10.53;;
40601;SDS011;26310;50.278;19.032;2022-12-07T09:26:52;18.73;;;10.23;;
40601;SDS011;26310;50.278;19.032;2022-12-07T09:31:55;29.17;;;12.03;;
40601;SDS011;26310;50.278;19.032;2022-12-07T09:36:58;28.43;;;13.63;;
40601;SDS011;26310;50.278;19.032;2022-12-07T09:42:04;17.77;;;10.97;;
40601;SDS011;26310;50.278;19.032;2022-12-07T09:47:08;17.93;;;10.73;;
40601;SDS011;26310;50.278;19.032;2022-12-07T09:57:29;24.47;;;12.43;;
40601;SDS011;26310;50.278;19.032;2022-12-07T10:03:16;21.00;;;12.07;;
40601;SDS011;26310;50.278;19.032;2022-12-07T10:08:00;22.53;;;11.60;;
40601;SDS011;26310;50.278;19.032;2022-12-07T10:13:10;21.77;;;11.27;;
40601;SDS011;26310;50.278;19.032;2022-12-07T10:23:28;22.33;;;12.13;;
40601;SDS011;26310;50.278;19.032;2022-12-07T10:28:35;19.60;;;10.50;;
40601;SDS011;26310;50.278;19.032;2022-12-07T10:39:03;17.70;;;10.00;;
40601;SDS011;26310;50.278;19.032;2022-12-07T10:44:21;19.03;;;10.23;;
40601;SDS011;26310;50.278;19.032;2022-12-07T10:49:44;14.37;;;9.27;;
40601;SDS011;26310;50.278;19.032;2022-12-07T11:05:45;10.87;;;7.03;;
40601;SDS011;26310;50.278;19.032;2022-12-07T11:11:04;12.93;;;7.83;;
40601;SDS011;26310;50.278;19.032;2022-12-07T11:21:56;13.47;;;8.33;;
40601;SDS011;26310;50.278;19.032;2022-12-07T11:27:20;13.30;;;8.40;;
40601;SDS011;26310;50.278;19.032;2022-12-07T11:32:42;15.70;;;9.17;;
40601;SDS011;26310;50.278;19.032;2022-12-07T11:38:13;14.73;;;9.57;;
40601;SDS011;26310;50.278;19.032;2022-12-07T11:43:31;16.17;;;10.07;;
40601;SDS011;26310;50.278;19.032;2022-12-07T11:48:37;15.50;;;8.60;;
40601;SDS011;26310;50.278;19.032;2022-12-07T11:53:46;11.27;;;7.67;;
40601;SDS011;26310;50.278;19.032;2022-12-07T11:59:10;16.37;;;8.10;;
40601;SDS011;26310;50.278;19.032;2022-12-07T12:04:23;12.37;;;7.63;;
40601;SDS011;26310;50.278;19.032;2022-12-07T12:09:50;11.37;;;7.67;;
40601;SDS011;26310;50.278;19.032;2022-12-07T12:25:49;13.80;;;7.80;;
40601;SDS011;26310;50.278;19.032;2022-12-07T12:36:26;10.80;;;7.00;;
40601;SDS011;26310;50.278;19.032;2022-12-07T12:47:01;8.90;;;6.27;;
40601;SDS011;26310;50.278;19.032;2022-12-07T12:57:40;14.57;;;7.17;;
40601;SDS011;26310;50.278;19.032;2022-12-07T13:02:53;10.93;;;6.27;;
40601;SDS011;26310;50.278;19.032;2022-12-07T13:23:36;9.00;;;5.67;;
40601;SDS011;26310;50.278;19.032;2022-12-07T13:28:49;10.63;;;6.37;;
40601;SDS011;26310;50.278;19.032;2022-12-07T13:39:33;8.77;;;5.73;;
40601;SDS011;26310;50.278;19.032;2022-12-07T13:44:39;7.80;;;5.27;;
40601;SDS011;26310;50.278;19.032;2022-12-07T13:49:47;11.63;;;6.37;;
40601;SDS011;26310;50.278;19.032;2022-12-07T13:54:56;10.07;;;5.13;;
40601;SDS011;26310;50.278;19.032;2022-12-07T14:00:05;8.00;;;5.23;;
40601;SDS011;26310;50.278;19.032;2022-12-07T14:05:30;11.37;;;5.70;;
40601;SDS011;26310;50.278;19.032;2022-12-07T14:10:35;6.70;;;5.20;;
40601;SDS011;26310;50.278;19.032;2022-12-07T14:15:40;8.67;;;6.20;;
40601;SDS011;26310;50.278;19.032;2022-12-07T14:20:42;13.07;;;5.70;;
40601;SDS011;26310;50.278;19.032;2022-12-07T14:25:46;10.43;;;5.93;;
40601;SDS011;26310;50.278;19.032;2022-12-07T14:30:52;9.50;;;5.87;;
40601;SDS011;26310;50.278;19.032;2022-12-07T14:35:55;11.07;;;6.70;;
40601;SDS011;26310;50.278;19.032;2022-12-07T14:41:00;15.47;;;7.93;;
40601;SDS011;26310;50.278;19.032;2022-12-07T14:46:35;13.67;;;7.60;;
40601;SDS011;26310;50.278;19.032;2022-12-07T14:51:39;17.50;;;7.43;;
40601;SDS011;26310;50.278;19.032;2022-12-07T14:57:02;16.77;;;7.33;;
40601;SDS011;26310;50.278;19.032;2022-12-07T15:02:06;17.77;;;7.53;;
40601;SDS011;26310;50.278;19.032;2022-12-07T15:07:20;15.33;;;7.70;;
40601;SDS011;26310;50.278;19.032;2022-12-07T15:12:23;12.07;;;6.80;;
40601;SDS011;26310;50.278;19.032;2022-12-07T15:17:26;10.60;;;7.10;;
40601;SDS011;26310;50.278;19.032;2022-12-07T15:22:33;14.80;;;6.70;;
40601;SDS011;26310;50.278;19.032;2022-12-07T15:27:39;12.70;;;7.10;;
40601;SDS011;26310;50.278;19.032;2022-12-07T15:32:42;11.87;;;6.47;;
40601;SDS011;26310;50.278;19.032;2022-12-07T15:37:45;11.50;;;7.23;;
40601;SDS011;26310;50.278;19.032;2022-12-07T15:42:48;16.07;;;8.40;;
40601;SDS011;26310;50.278;19.032;2022-12-07T15:47:51;14.57;;;8.10;;
40601;SDS011;26310;50.278;19.032;2022-12-07T15:53:14;13.23;;;7.60;;
40601;SDS011;26310;50.278;19.032;2022-12-07T15:58:17;14.83;;;8.37;;
40601;SDS011;26310;50.278;19.032;2022-12-07T16:03:19;16.13;;;7.90;;
40601;SDS011;26310;50.278;19.032;2022-12-07T16:08:22;9.97;;;7.03;;
40601;SDS011;26310;50.278;19.032;2022-12-07T16:13:25;11.97;;;6.57;;
40601;SDS011;26310;50.278;19.032;2022-12-07T16:18:28;12.80;;;7.33;;
40601;SDS011;26310;50.278;19.032;2022-12-07T16:23:31;10.67;;;5.70;;
40601;SDS011;26310;50.278;19.032;2022-12-07T16:28:34;15.17;;;7.57;;
40601;SDS011;26310;50.278;19.032;2022-12-07T16:33:37;14.90;;;7.00;;
40601;SDS011;26310;50.278;19.032;2022-12-07T16:38:41;15.70;;;7.83;;
40601;SDS011;26310;50.278;19.032;2022-12-07T16:43:52;17.40;;;8.23;;
40601;SDS011;26310;50.278;19.032;2022-12-07T16:48:55;13.17;;;7.47;;
40601;SDS011;26310;50.278;19.032;2022-12-07T16:53:58;17.17;;;8.37;;
40601;SDS011;26310;50.278;19.032;2022-12-07T16:59:01;15.87;;;8.30;;
40601;SDS011;26310;50.278;19.032;2022-12-07T17:04:03;15.87;;;8.50;;
40601;SDS011;26310;50.278;19.032;2022-12-07T17:09:06;17.07;;;8.77;;
40601;SDS011;26310;50.278;19.032;2022-12-07T17:14:11;16.10;;;7.80;;
40601;SDS011;26310;50.278;19.032;2022-12-07T17:19:33;18.07;;;9.93;;
40601;SDS011;26310;50.278;19.032;2022-12-07T17:24:35;17.67;;;9.07;;
40601;SDS011;26310;50.278;19.032;2022-12-07T17:29:38;15.87;;;8.83;;
40601;SDS011;26310;50.278;19.032;2022-12-07T17:34:41;15.53;;;9.23;;
40601;SDS011;26310;50.278;19.032;2022-12-07T17:39:44;17.10;;;8.33;;
40601;SDS011;26310;50.278;19.032;2022-12-07T17:44:47;16.37;;;7.63;;
40601;SDS011;26310;50.278;19.032;2022-12-07T17:49:49;15.93;;;8.40;;
40601;SDS011;26310;50.278;19.032;2022-12-07T17:54:53;20.27;;;8.40;;
40601;SDS011;26310;50.278;19.032;2022-12-07T17:59:56;20.63;;;8.60;;
40601;SDS011;26310;50.278;19.032;2022-12-07T18:04:59;15.93;;;9.13;;
40601;SDS011;26310;50.278;19.032;2022-12-07T18:10:03;21.87;;;9.70;;
40601;SDS011;26310;50.278;19.032;2022-12-07T18:15:08;15.83;;;8.87;;
40601;SDS011;26310;50.278;19.032;2022-12-07T18:20:11;13.50;;;7.33;;
40601;SDS011;26310;50.278;19.032;2022-12-07T18:25:14;15.53;;;8.93;;
40601;SDS011;26310;50.278;19.032;2022-12-07T18:30:17;18.40;;;9.07;;
40601;SDS011;26310;50.278;19.032;2022-12-07T18:35:22;13.20;;;7.83;;
40601;SDS011;26310;50.278;19.032;2022-12-07T18:40:26;11.80;;;7.23;;
40601;SDS011;26310;50.278;19.032;2022-12-07T18:45:29;12.33;;;7.33;;
40601;SDS011;26310;50.278;19.032;2022-12-07T18:50:32;11.13;;;7.60;;
40601;SDS011;26310;50.278;19.032;2022-12-07T18:55:35;16.43;;;7.67;;
40601;SDS011;26310;50.278;19.032;2022-12-07T19:00:38;13.17;;;7.80;;
40601;SDS011;26310;50.278;19.032;2022-12-07T19:05:41;13.33;;;7.53;;
40601;SDS011;26310;50.278;19.032;2022-12-07T19:10:44;14.77;;;8.23;;
40601;SDS011;26310;50.278;19.032;2022-12-07T19:15:47;14.93;;;7.83;;
40601;SDS011;26310;50.278;19.032;2022-12-07T19:20:50;15.50;;;8.17;;
40601;SDS011;26310;50.278;19.032;2022-12-07T19:25:53;20.53;;;9.40;;
40601;SDS011;26310;50.278;19.032;2022-12-07T19:30:56;16.93;;;8.53;;
40601;SDS011;26310;50.278;19.032;2022-12-07T19:35:59;13.57;;;7.77;;
40601;SDS011;26310;50.278;19.032;2022-12-07T19:41:05;16.60;;;7.80;;
40601;SDS011;26310;50.278;19.032;2022-12-07T19:46:09;11.63;;;7.80;;
40601;SDS011;26310;50.278;19.032;2022-12-07T19:51:11;15.13;;;8.60;;
40601;SDS011;26310;50.278;19.032;2022-12-07T19:56:18;18.20;;;7.83;;
40601;SDS011;26310;50.278;19.032;2022-12-07T20:01:21;13.70;;;7.53;;
40601;SDS011;26310;50.278;19.032;2022-12-07T20:06:24;14.27;;;7.70;;
40601;SDS011;26310;50.278;19.032;2022-12-07T20:11:27;14.77;;;7.63;;
40601;SDS011;26310;50.278;19.032;2022-12-07T20:16:49;13.27;;;7.37;;
40601;SDS011;26310;50.278;19.032;2022-12-07T20:21:52;13.67;;;7.30;;
40601;SDS011;26310;50.278;19.032;2022-12-07T20:26:55;15.13;;;8.37;;
40601;SDS011;26310;50.278;19.032;2022-12-07T20:31:58;19.90;;;8.30;;
40601;SDS011;26310;50.278;19.032;2022-12-07T20:37:01;18.80;;;9.03;;
40601;SDS011;26310;50.278;19.032;2022-12-07T20:42:03;16.50;;;8.90;;
40601;SDS011;26310;50.278;19.032;2022-12-07T20:47:25;19.13;;;10.20;;
40601;SDS011;26310;50.278;19.032;2022-12-07T20:52:28;16.40;;;9.97;;
40601;SDS011;26310;50.278;19.032;2022-12-07T20:57:31;21.43;;;10.90;;
40601;SDS011;26310;50.278;19.032;2022-12-07T21:02:34;20.47;;;11.07;;
40601;SDS011;26310;50.278;19.032;2022-12-07T21:07:39;18.47;;;10.10;;
40601;SDS011;26310;50.278;19.032;2022-12-07T21:12:42;21.27;;;10.03;;
40601;SDS011;26310;50.278;19.032;2022-12-07T21:17:45;19.50;;;10.10;;
40601;SDS011;26310;50.278;19.032;2022-12-07T21:22:47;21.00;;;9.33;;
40601;SDS011;26310;50.278;19.032;2022-12-07T21:27:50;20.87;;;9.67;;
40601;SDS011;26310;50.278;19.032;2022-12-07T21:32:53;19.43;;;9.83;;
40601;SDS011;26310;50.278;19.032;2022-12-07T21:37:56;15.67;;;10.50;;
40601;SDS011;26310;50.278;19.032;2022-12-07T21:42:59;17.80;;;9.77;;
40601;SDS011;26310;50.278;19.032;2022-12-07T21:48:02;19.77;;;10.40;;
40601;SDS011;26310;50.278;19.032;2022-12-07T21:53:05;16.77;;;9.50;;
40601;SDS011;26310;50.278;19.032;2022-12-07T21:58:08;18.27;;;9.47;;
40601;SDS011;26310;50.278;19.032;2022-12-07T22:03:11;18.53;;;9.00;;
40601;SDS011;26310;50.278;19.032;2022-12-07T22:08:14;14.80;;;8.70;;
40601;SDS011;26310;50.278;19.032;2022-12-07T22:13:17;17.13;;;9.23;;
40601;SDS011;26310;50.278;19.032;2022-12-07T22:18:20;16.20;;;7.77;;
40601;SDS011;26310;50.278;19.032;2022-12-07T22:23:23;12.77;;;7.80;;
40601;SDS011;26310;50.278;19.032;2022-12-07T22:28:26;17.03;;;8.20;;
40601;SDS011;26310;50.278;19.032;2022-12-07T22:33:28;15.97;;;7.40;;
40601;SDS011;26310;50.278;19.032;2022-12-07T22:38:32;12.60;;;7.00;;
40601;SDS011;26310;50.278;19.032;2022-12-07T22:43:35;13.17;;;6.77;;
40601;SDS011;26310;50.278;19.032;2022-12-07T22:48:37;13.00;;;7.17;;
40601;SDS011;26310;50.278;19.032;2022-12-07T22:53:40;10.80;;;6.43;;
40601;SDS011;26310;50.278;19.032;2022-12-07T22:58:43;15.80;;;7.73;;
40601;SDS011;26310;50.278;19.032;2022-12-07T23:03:46;11.80;;;6.63;;
40601;SDS011;26310;50.278;19.032;2022-12-07T23:08:49;14.53;;;7.60;;
40601;SDS011;26310;50.278;19.032;2022-12-07T23:13:52;11.73;;;7.03;;
40601;SDS011;26310;50.278;19.032;2022-12-07T23:18:55;12.07;;;6.63;;
40601;SDS011;26310;50.278;19.032;2022-12-07T23:23:58;13.80;;;7.20;;
40601;SDS011;26310;50.278;19.032;2022-12-07T23:29:01;10.07;;;6.27;;
40601;SDS011;26310;50.278;19.032;2022-12-07T23:34:04;10.40;;;6.87;;
40601;SDS011;26310;50.278;19.032;2022-12-07T23:39:07;13.27;;;6.43;;
40601;SDS011;26310;50.278;19.032;2022-12-07T23:44:10;12.40;;;6.97;;
40601;SDS011;26310;50.278;19.032;2022-12-07T23:49:13;14.93;;;6.87;;
40601;SDS011;26310;50.278;19.032;2022-12-07T23:54:16;12.60;;;7.10;;
40601;SDS011;26310;50.278;19.032;2022-12-07T23:59:19;14.40;;;7.93;;
